createdAt,value
2016-08-22T00:00:15.059Z,0
2016-08-22T00:01:15.046Z,0
2016-08-22T00:02:15.042Z,0
2016-08-22T00:03:15.031Z,0
2016-08-22T00:04:15.037Z,0
2016-08-22T00:05:15.035Z,0
2016-08-22T00:06:15.029Z,0
2016-08-22T00:07:15.032Z,0
2016-08-22T00:08:15.034Z,0
2016-08-22T00:09:15.007Z,0
2016-08-22T00:10:15.013Z,0
2016-08-22T00:11:15.011Z,0
2016-08-22T00:12:18.136Z,0
2016-08-22T00:13:30.266Z,0
2016-08-22T00:14:16.006Z,0
2016-08-22T00:15:15.189Z,0
2016-08-22T00:17:14.973Z,0
2016-08-22T00:18:14.969Z,0
2016-08-22T00:19:14.975Z,0
2016-08-22T00:20:14.963Z,0
2016-08-22T00:21:17.004Z,0
2016-08-22T00:22:44.941Z,0
2016-08-22T00:23:15.950Z,0
2016-08-22T00:24:30.503Z,0
2016-08-22T00:25:29.861Z,0
2016-08-22T00:26:14.934Z,0
2016-08-22T00:27:14.937Z,0
2016-08-22T00:28:14.924Z,0
2016-08-22T00:29:14.916Z,0
2016-08-22T00:30:14.913Z,0
2016-08-22T00:31:14.916Z,0
2016-08-22T00:32:14.905Z,0
2016-08-22T00:33:14.900Z,0
2016-08-22T00:35:17.633Z,0
2016-08-22T00:36:17.849Z,0
2016-08-22T00:37:17.806Z,0
2016-08-22T00:38:16.598Z,0
2016-08-22T00:39:15.174Z,0
2016-08-22T00:40:15.444Z,0
2016-08-22T00:41:15.094Z,0
2016-08-22T00:42:14.866Z,0
2016-08-22T00:43:17.238Z,0
2016-08-22T00:45:16.616Z,0
2016-08-22T00:46:16.922Z,0
2016-08-22T00:47:15.938Z,0
2016-08-22T00:48:14.836Z,0
2016-08-22T00:49:15.290Z,0
2016-08-22T00:50:15.081Z,0
2016-08-22T00:51:14.820Z,0
2016-08-22T00:52:14.817Z,0
2016-08-22T00:53:14.816Z,0
2016-08-22T00:54:14.807Z,0
2016-08-22T00:55:14.793Z,0
2016-08-22T00:56:14.795Z,0
2016-08-22T00:57:14.790Z,0
2016-08-22T00:58:14.786Z,0
2016-08-22T00:59:14.784Z,0
2016-08-22T01:00:14.887Z,0
2016-08-22T01:01:14.773Z,0
2016-08-22T01:02:14.768Z,0
2016-08-22T01:03:14.763Z,0
2016-08-22T01:04:14.759Z,0
2016-08-22T01:05:14.755Z,0
2016-08-22T01:06:14.766Z,0
2016-08-22T01:07:14.750Z,0
2016-08-22T01:08:14.745Z,0
2016-08-22T01:09:14.740Z,0
2016-08-22T01:10:14.732Z,0
2016-08-22T01:11:14.732Z,0
2016-08-22T01:12:14.718Z,0
2016-08-22T01:13:14.720Z,0
2016-08-22T01:14:14.713Z,0
2016-08-22T01:15:15.405Z,0
2016-08-22T01:16:14.709Z,0
2016-08-22T01:17:14.706Z,0
2016-08-22T01:18:14.696Z,0
2016-08-22T01:19:14.687Z,0
2016-08-22T01:20:14.685Z,0
2016-08-22T01:21:14.671Z,0
2016-08-22T01:22:14.675Z,0
2016-08-22T01:23:14.662Z,0
2016-08-22T01:24:14.665Z,0
2016-08-22T01:25:14.679Z,0
2016-08-22T01:26:15.358Z,0
2016-08-22T01:27:14.654Z,0
2016-08-22T01:28:14.648Z,0
2016-08-22T01:29:14.634Z,0
2016-08-22T01:30:30.160Z,0
2016-08-22T01:31:15.683Z,0
2016-08-22T01:32:16.235Z,0
2016-08-22T01:33:16.079Z,0
2016-08-22T01:35:14.600Z,0
2016-08-22T01:36:14.607Z,0
2016-08-22T01:37:14.600Z,0
2016-08-22T01:38:14.588Z,0
2016-08-22T01:39:16.992Z,0
2016-08-22T01:40:30.164Z,0
2016-08-22T01:42:16.047Z,0
2016-08-22T01:44:14.591Z,0
2016-08-22T01:46:14.563Z,0
2016-08-22T01:47:14.615Z,0
2016-08-22T01:48:14.550Z,0
2016-08-22T01:49:14.550Z,0
2016-08-22T01:50:14.540Z,0
2016-08-22T01:51:14.538Z,0
2016-08-22T01:52:17.432Z,0
2016-08-22T01:53:17.528Z,0
2016-08-22T01:54:18.190Z,0
2016-08-22T01:55:15.247Z,0
2016-08-22T01:56:15.354Z,0
2016-08-22T01:57:14.506Z,0
2016-08-22T01:58:14.815Z,0
2016-08-22T01:59:14.565Z,0
2016-08-22T02:00:14.494Z,0
2016-08-22T02:01:16.065Z,0
2016-08-22T02:03:16.656Z,0
2016-08-22T02:04:17.331Z,0
2016-08-22T02:05:14.543Z,0
2016-08-22T02:06:15.787Z,0
2016-08-22T02:07:14.453Z,0
2016-08-22T02:08:14.453Z,0
2016-08-22T02:09:14.444Z,0
2016-08-22T02:10:14.452Z,0
2016-08-22T02:11:14.433Z,0
2016-08-22T02:12:14.435Z,0
2016-08-22T02:13:14.432Z,0
2016-08-22T02:14:14.442Z,0
2016-08-22T02:15:14.417Z,0
2016-08-22T02:16:14.410Z,0
2016-08-22T02:17:15.104Z,0
2016-08-22T02:18:14.409Z,0
2016-08-22T02:19:14.394Z,0
2016-08-22T02:20:14.403Z,0
2016-08-22T02:21:14.391Z,0
2016-08-22T02:22:14.383Z,0
2016-08-22T02:23:14.372Z,0
2016-08-22T02:24:14.370Z,0
2016-08-22T02:25:14.359Z,0
2016-08-22T02:26:14.368Z,0
2016-08-22T02:27:14.348Z,0
2016-08-22T02:28:14.350Z,0
2016-08-22T02:29:14.342Z,0
2016-08-22T02:30:14.343Z,0
2016-08-22T02:31:14.341Z,0
2016-08-22T02:32:14.336Z,0
2016-08-22T02:33:14.327Z,0
2016-08-22T02:34:14.321Z,0
2016-08-22T02:35:14.321Z,0
2016-08-22T02:36:14.315Z,0
2016-08-22T02:37:14.308Z,0
2016-08-22T02:38:14.322Z,0
2016-08-22T02:39:14.295Z,0
2016-08-22T02:40:14.287Z,0
2016-08-22T02:41:14.293Z,0
2016-08-22T02:42:14.306Z,0
2016-08-22T02:43:14.278Z,0
2016-08-22T02:44:14.273Z,0
2016-08-22T02:45:14.270Z,0
2016-08-22T02:46:14.256Z,0
2016-08-22T02:47:14.262Z,0
2016-08-22T02:48:16.551Z,0
2016-08-22T02:49:29.456Z,0
2016-08-22T02:50:14.591Z,0
2016-08-22T02:52:14.328Z,0
2016-08-22T02:53:15.529Z,0
2016-08-22T02:54:14.217Z,0
2016-08-22T02:55:14.217Z,0
2016-08-22T02:56:14.206Z,0
2016-08-22T02:57:16.455Z,0
2016-08-22T03:00:14.700Z,0
2016-08-22T03:02:15.329Z,0
2016-08-22T03:03:14.174Z,0
2016-08-22T03:04:14.174Z,0
2016-08-22T03:05:14.218Z,0
2016-08-22T03:06:14.859Z,0
2016-08-22T03:07:14.165Z,0
2016-08-22T03:08:14.145Z,0
2016-08-22T03:09:14.151Z,0
2016-08-22T03:10:14.133Z,0
2016-08-22T03:12:16.721Z,0
2016-08-22T03:13:17.598Z,0
2016-08-22T03:14:15.093Z,0
2016-08-22T03:15:14.554Z,0
2016-08-22T03:16:14.107Z,0
2016-08-22T03:17:14.121Z,0
2016-08-22T03:18:14.101Z,0
2016-08-22T03:20:17.099Z,0
2016-08-22T03:21:17.077Z,0
2016-08-22T03:22:16.428Z,0
2016-08-22T03:23:14.273Z,0
2016-08-22T03:24:14.069Z,0
2016-08-22T03:25:15.123Z,0
2016-08-22T03:26:14.057Z,0
2016-08-22T03:27:14.065Z,0
2016-08-22T03:28:14.046Z,0
2016-08-22T03:29:14.046Z,0
2016-08-22T03:30:14.039Z,0
2016-08-22T03:31:14.040Z,0
2016-08-22T03:32:14.028Z,0
2016-08-22T03:33:14.026Z,0
2016-08-22T03:34:14.018Z,0
2016-08-22T03:35:14.020Z,0
2016-08-22T03:36:14.015Z,0
2016-08-22T03:37:13.998Z,0
2016-08-22T03:38:14.010Z,0
2016-08-22T03:39:14.005Z,0
2016-08-22T03:40:13.988Z,0
2016-08-22T03:41:13.997Z,0
2016-08-22T03:42:13.981Z,0
2016-08-22T03:43:13.971Z,0
2016-08-22T03:44:13.975Z,0
2016-08-22T03:45:13.980Z,0
2016-08-22T03:46:13.970Z,0
2016-08-22T03:47:14.644Z,0
2016-08-22T03:48:13.951Z,0
2016-08-22T03:49:13.949Z,0
2016-08-22T03:50:14.639Z,0
2016-08-22T03:51:13.945Z,0
2016-08-22T03:52:13.927Z,5
2016-08-22T03:53:13.931Z,5
2016-08-22T03:54:13.922Z,5
2016-08-22T03:55:13.922Z,5
2016-08-22T03:56:13.906Z,5
2016-08-22T03:57:13.907Z,5
2016-08-22T03:58:13.906Z,10
2016-08-22T03:59:13.893Z,10
2016-08-22T04:00:13.941Z,10
2016-08-22T04:01:13.892Z,10
2016-08-22T04:02:13.882Z,10
2016-08-22T04:03:13.879Z,10
2016-08-22T04:04:13.873Z,10
2016-08-22T04:05:13.881Z,10
2016-08-22T04:06:29.684Z,10
2016-08-22T04:07:14.414Z,10
2016-08-22T04:09:28.974Z,10
2016-08-22T04:10:29.414Z,10
2016-08-22T04:11:14.203Z,10
2016-08-22T04:12:14.134Z,10
2016-08-22T04:13:13.832Z,10
2016-08-22T04:14:13.833Z,15
2016-08-22T04:15:15.122Z,15
2016-08-22T04:16:14.771Z,10
2016-08-22T04:17:14.710Z,10
2016-08-22T04:19:14.760Z,10
2016-08-22T04:20:13.899Z,10
2016-08-22T04:21:14.748Z,15
2016-08-22T04:22:13.809Z,15
2016-08-22T04:23:13.790Z,15
2016-08-22T04:24:13.778Z,15
2016-08-22T04:25:13.786Z,15
2016-08-22T04:26:13.787Z,20
2016-08-22T04:27:13.779Z,20
2016-08-22T04:28:13.766Z,25
2016-08-22T04:29:13.768Z,25
2016-08-22T04:30:13.755Z,30
2016-08-22T04:31:13.748Z,30
2016-08-22T04:32:13.757Z,30
2016-08-22T04:33:13.742Z,30
2016-08-22T04:34:14.446Z,30
2016-08-22T04:35:13.747Z,40
2016-08-22T04:36:13.736Z,45
2016-08-22T04:37:13.730Z,45
2016-08-22T04:38:14.425Z,45
2016-08-22T04:39:13.729Z,45
2016-08-22T04:40:13.718Z,45
2016-08-22T04:41:13.724Z,45
2016-08-22T04:42:13.716Z,50
2016-08-22T04:43:13.717Z,50
2016-08-22T04:44:13.713Z,55
2016-08-22T04:45:13.701Z,55
2016-08-22T04:46:13.698Z,60
2016-08-22T04:47:13.705Z,60
2016-08-22T04:48:13.697Z,60
2016-08-22T04:49:13.686Z,65
2016-08-22T04:50:13.705Z,70
2016-08-22T04:51:13.688Z,75
2016-08-22T04:52:13.683Z,80
2016-08-22T04:53:13.693Z,85
2016-08-22T04:54:13.693Z,85
2016-08-22T04:55:13.674Z,90
2016-08-22T04:56:14.374Z,90
2016-08-22T04:57:13.656Z,95
2016-08-22T04:58:13.659Z,90
2016-08-22T04:59:13.659Z,85
2016-08-22T05:00:13.673Z,85
2016-08-22T05:01:13.655Z,90
2016-08-22T05:02:13.649Z,85
2016-08-22T05:03:13.646Z,90
2016-08-22T05:04:13.643Z,100
2016-08-22T05:05:13.632Z,105
2016-08-22T05:06:13.644Z,110
2016-08-22T05:07:13.641Z,110
2016-08-22T05:08:13.642Z,105
2016-08-22T05:09:13.626Z,100
2016-08-22T05:10:13.620Z,95
2016-08-22T05:11:13.619Z,90
2016-08-22T05:12:13.622Z,90
2016-08-22T05:13:13.618Z,90
2016-08-22T05:14:14.324Z,90
2016-08-22T05:15:13.637Z,90
2016-08-22T05:16:13.609Z,95
2016-08-22T05:17:13.600Z,95
2016-08-22T05:18:13.614Z,100
2016-08-22T05:19:13.604Z,105
2016-08-22T05:20:13.593Z,110
2016-08-22T05:21:13.595Z,110
2016-08-22T05:22:13.592Z,110
2016-08-22T05:23:13.593Z,115
2016-08-22T05:24:14.643Z,115
2016-08-22T05:25:14.278Z,115
2016-08-22T05:26:28.957Z,125
2016-08-22T05:27:14.037Z,140
2016-08-22T05:28:14.336Z,155
2016-08-22T05:29:30.016Z,180
2016-08-22T05:31:15.557Z,180
2016-08-22T05:32:14.062Z,200
2016-08-22T05:33:14.295Z,235
2016-08-22T05:34:28.887Z,275
2016-08-22T05:35:44.246Z,300
2016-08-22T05:36:43.688Z,325
2016-08-22T05:38:15.548Z,360
2016-08-22T05:39:15.876Z,375
2016-08-22T05:40:14.616Z,370
2016-08-22T05:41:16.440Z,355
2016-08-22T05:42:13.885Z,335
2016-08-22T05:43:13.842Z,300
2016-08-22T05:44:13.539Z,285
2016-08-22T05:45:13.540Z,290
2016-08-22T05:46:13.546Z,305
2016-08-22T05:47:13.536Z,310
2016-08-22T05:48:13.534Z,305
2016-08-22T05:49:13.546Z,330
2016-08-22T05:50:13.541Z,355
2016-08-22T05:51:13.545Z,390
2016-08-22T05:52:13.546Z,535
2016-08-22T05:53:13.537Z,610
2016-08-22T05:54:13.531Z,515
2016-08-22T05:55:13.541Z,535
2016-08-22T05:56:13.538Z,530
2016-08-22T05:57:13.532Z,685
2016-08-22T05:58:13.534Z,760
2016-08-22T05:59:13.553Z,790
2016-08-22T06:00:13.633Z,865
2016-08-22T06:01:13.531Z,880
2016-08-22T06:02:13.530Z,895
2016-08-22T06:03:13.531Z,920
2016-08-22T06:04:13.530Z,895
2016-08-22T06:05:13.542Z,895
2016-08-22T06:06:13.555Z,815
2016-08-22T06:07:13.543Z,900
2016-08-22T06:08:13.545Z,870
2016-08-22T06:09:13.551Z,885
2016-08-22T06:10:13.553Z,885
2016-08-22T06:11:13.567Z,900
2016-08-22T06:12:13.558Z,790
2016-08-22T06:13:14.256Z,825
2016-08-22T06:14:13.581Z,755
2016-08-22T06:15:13.582Z,905
2016-08-22T06:16:14.278Z,770
2016-08-22T06:17:13.593Z,870
2016-08-22T06:18:13.609Z,975
2016-08-22T06:19:13.604Z,1065
2016-08-22T06:20:13.607Z,1035
2016-08-22T06:21:13.623Z,1095
2016-08-22T06:22:13.625Z,1075
2016-08-22T06:23:13.637Z,1085
2016-08-22T06:24:13.646Z,1200
2016-08-22T06:25:13.644Z,1170
2016-08-22T06:26:13.657Z,1200
2016-08-22T06:27:13.674Z,1195
2016-08-22T06:28:13.673Z,1290
2016-08-22T06:29:13.686Z,1290
2016-08-22T06:30:13.693Z,1285
2016-08-22T06:31:16.745Z,1090
2016-08-22T06:32:13.706Z,700
2016-08-22T06:33:13.743Z,655
2016-08-22T06:34:13.736Z,465
2016-08-22T06:35:13.743Z,515
2016-08-22T06:36:13.759Z,590
2016-08-22T06:37:13.769Z,1030
2016-08-22T06:38:13.773Z,945
2016-08-22T06:39:14.481Z,1165
2016-08-22T06:40:13.795Z,1070
2016-08-22T06:41:13.806Z,1045
2016-08-22T06:42:13.816Z,1210
2016-08-22T06:43:29.891Z,1135
2016-08-22T06:44:29.348Z,805
2016-08-22T06:45:29.766Z,710
2016-08-22T06:46:28.980Z,695
2016-08-22T06:48:18.645Z,600
2016-08-22T06:49:15.446Z,540
2016-08-22T06:50:14.240Z,515
2016-08-22T06:51:14.896Z,485
2016-08-22T06:52:14.929Z,465
2016-08-22T06:53:59.529Z,450
2016-08-22T06:54:14.630Z,420
2016-08-22T06:55:14.393Z,370
2016-08-22T06:56:17.553Z,320
2016-08-22T06:58:15.366Z,230
2016-08-22T06:59:14.396Z,220
2016-08-22T07:00:15.169Z,200
2016-08-22T07:01:14.904Z,210
2016-08-22T07:02:14.234Z,230
2016-08-22T07:03:14.003Z,295
2016-08-22T07:04:14.021Z,320
2016-08-22T07:05:14.020Z,290
2016-08-22T07:06:14.026Z,240
2016-08-22T07:07:14.039Z,260
2016-08-22T07:08:14.043Z,305
2016-08-22T07:09:14.056Z,410
2016-08-22T07:10:14.058Z,500
2016-08-22T07:11:14.066Z,830
2016-08-22T07:12:14.074Z,1215
2016-08-22T07:13:14.075Z,1265
2016-08-22T07:14:14.080Z,480
2016-08-22T07:15:14.109Z,1465
2016-08-22T07:16:14.094Z,1690
2016-08-22T07:17:14.107Z,1705
2016-08-22T07:18:14.110Z,995
2016-08-22T07:19:14.126Z,1690
2016-08-22T07:20:14.130Z,1540
2016-08-22T07:21:14.121Z,790
2016-08-22T07:22:14.132Z,1525
2016-08-22T07:23:14.159Z,1235
2016-08-22T07:24:14.152Z,1530
2016-08-22T07:25:14.146Z,1520
2016-08-22T07:26:14.170Z,1565
2016-08-22T07:27:21.152Z,1665
2016-08-22T07:28:14.175Z,1690
2016-08-22T07:29:14.189Z,1005
2016-08-22T07:30:14.207Z,1160
2016-08-22T07:31:14.212Z,565
2016-08-22T07:32:14.223Z,565
2016-08-22T07:33:14.244Z,1040
2016-08-22T07:34:14.246Z,415
2016-08-22T07:35:14.253Z,680
2016-08-22T07:36:14.266Z,1105
2016-08-22T07:37:14.280Z,1430
2016-08-22T07:38:14.279Z,745
2016-08-22T07:39:14.288Z,565
2016-08-22T07:40:14.312Z,595
2016-08-22T07:41:14.307Z,1435
2016-08-22T07:42:14.341Z,755
2016-08-22T07:43:14.341Z,2355
2016-08-22T07:44:14.345Z,2390
2016-08-22T07:45:14.355Z,2400
2016-08-22T07:46:14.368Z,2430
2016-08-22T07:47:14.374Z,2400
2016-08-22T07:48:14.386Z,2470
2016-08-22T07:49:14.397Z,2500
2016-08-22T07:50:21.695Z,2585
2016-08-22T07:51:21.375Z,2735
2016-08-22T07:52:14.428Z,2800
2016-08-22T07:53:14.441Z,2675
2016-08-22T07:54:14.468Z,1755
2016-08-22T07:55:14.465Z,2140
2016-08-22T07:56:14.481Z,535
2016-08-22T07:57:14.491Z,500
2016-08-22T07:58:14.504Z,610
2016-08-22T07:59:14.519Z,2335
2016-08-22T08:00:14.536Z,580
2016-08-22T08:02:14.950Z,625
2016-08-22T08:03:15.267Z,655
2016-08-22T08:04:15.191Z,765
2016-08-22T08:05:17.133Z,875
2016-08-22T08:06:16.853Z,1955
2016-08-22T08:07:17.890Z,1945
2016-08-22T08:08:17.059Z,1695
2016-08-22T08:09:15.035Z,1825
2016-08-22T08:10:31.133Z,1800
2016-08-22T08:11:15.258Z,1790
2016-08-22T08:12:15.734Z,1770
2016-08-22T08:13:15.283Z,1595
2016-08-22T08:15:16.673Z,1770
2016-08-22T08:16:17.406Z,1665
2016-08-22T08:17:16.793Z,1995
2016-08-22T08:18:15.070Z,2105
2016-08-22T08:19:15.760Z,650
2016-08-22T08:20:15.271Z,540
2016-08-22T08:21:14.780Z,580
2016-08-22T08:22:15.546Z,915
2016-08-22T08:23:14.820Z,1660
2016-08-22T08:24:14.823Z,1550
2016-08-22T08:25:14.825Z,2095
2016-08-22T08:26:14.845Z,2115
2016-08-22T08:27:14.852Z,2200
2016-08-22T08:28:14.884Z,755
2016-08-22T08:29:14.893Z,680
2016-08-22T08:30:14.890Z,1845
2016-08-22T08:31:14.908Z,720
2016-08-22T08:32:14.909Z,750
2016-08-22T08:33:14.925Z,890
2016-08-22T08:34:14.940Z,795
2016-08-22T08:35:14.942Z,755
2016-08-22T08:36:14.945Z,670
2016-08-22T08:37:14.954Z,570
2016-08-22T08:38:14.972Z,405
2016-08-22T08:39:14.987Z,375
2016-08-22T08:40:15.001Z,425
2016-08-22T08:41:15.011Z,410
2016-08-22T08:42:15.014Z,390
2016-08-22T08:43:15.030Z,430
2016-08-22T08:44:15.043Z,500
2016-08-22T08:45:15.058Z,590
2016-08-22T08:46:15.056Z,655
2016-08-22T08:47:15.067Z,645
2016-08-22T08:48:15.082Z,790
2016-08-22T08:49:15.080Z,780
2016-08-22T08:50:15.079Z,760
2016-08-22T08:51:15.100Z,760
2016-08-22T08:52:16.096Z,765
2016-08-22T08:53:15.118Z,690
2016-08-22T08:54:15.115Z,625
2016-08-22T08:55:15.136Z,655
2016-08-22T08:56:15.143Z,705
2016-08-22T08:57:15.139Z,710
2016-08-22T08:58:15.157Z,685
2016-08-22T08:59:15.166Z,615
2016-08-22T09:00:15.219Z,500
2016-08-22T09:01:15.189Z,515
2016-08-22T09:02:15.184Z,530
2016-08-22T09:03:15.187Z,475
2016-08-22T09:04:15.203Z,450
2016-08-22T09:05:15.212Z,400
2016-08-22T09:06:15.213Z,415
2016-08-22T09:07:15.220Z,605
2016-08-22T09:08:15.225Z,675
2016-08-22T09:09:15.225Z,705
2016-08-22T09:10:15.238Z,760
2016-08-22T09:11:15.243Z,760
2016-08-22T09:12:15.248Z,765
2016-08-22T09:13:15.266Z,700
2016-08-22T09:14:15.265Z,605
2016-08-22T09:15:15.274Z,520
2016-08-22T09:16:15.282Z,525
2016-08-22T09:17:15.297Z,570
2016-08-22T09:18:15.299Z,580
2016-08-22T09:19:16.105Z,555
2016-08-22T09:20:15.906Z,540
2016-08-22T09:21:16.520Z,640
2016-08-22T09:22:15.616Z,675
2016-08-22T09:23:21.342Z,695
2016-08-22T09:24:18.801Z,660
2016-08-22T09:25:16.469Z,660
2016-08-22T09:26:16.280Z,585
2016-08-22T09:27:15.662Z,460
2016-08-22T09:28:16.400Z,400
2016-08-22T09:29:16.216Z,390
2016-08-22T09:30:17.028Z,455
2016-08-22T09:31:16.886Z,580
2016-08-22T09:33:17.775Z,710
2016-08-22T09:34:19.622Z,655
2016-08-22T09:35:16.159Z,505
2016-08-22T09:36:15.751Z,430
2016-08-22T09:37:16.225Z,415
2016-08-22T09:38:16.282Z,410
2016-08-22T09:39:15.628Z,415
2016-08-22T09:40:15.432Z,420
2016-08-22T09:41:15.424Z,405
2016-08-22T09:42:15.437Z,365
2016-08-22T09:43:15.448Z,325
2016-08-22T09:44:15.442Z,300
2016-08-22T09:45:15.457Z,305
2016-08-22T09:46:15.461Z,295
2016-08-22T09:47:15.470Z,295
2016-08-22T09:48:15.474Z,295
2016-08-22T09:49:15.485Z,300
2016-08-22T09:50:15.494Z,300
2016-08-22T09:51:15.487Z,295
2016-08-22T09:52:15.496Z,310
2016-08-22T09:53:15.498Z,300
2016-08-22T09:54:16.209Z,310
2016-08-22T09:55:15.510Z,330
2016-08-22T09:56:15.513Z,310
2016-08-22T09:57:15.523Z,375
2016-08-22T09:58:15.534Z,400
2016-08-22T09:59:15.538Z,400
2016-08-22T10:00:16.278Z,410
2016-08-22T10:01:15.534Z,420
2016-08-22T10:02:15.539Z,415
2016-08-22T10:03:15.546Z,450
2016-08-22T10:04:15.566Z,490
2016-08-22T10:05:15.556Z,465
2016-08-22T10:06:15.564Z,410
2016-08-22T10:07:15.572Z,380
2016-08-22T10:08:15.577Z,360
2016-08-22T10:09:15.584Z,355
2016-08-22T10:10:15.582Z,355
2016-08-22T10:11:15.578Z,390
2016-08-22T10:12:15.588Z,455
2016-08-22T10:13:15.593Z,480
2016-08-22T10:14:15.592Z,470
2016-08-22T10:15:15.608Z,555
2016-08-22T10:16:15.598Z,720
2016-08-22T10:17:15.615Z,700
2016-08-22T10:18:15.615Z,675
2016-08-22T10:19:15.607Z,530
2016-08-22T10:20:15.619Z,405
2016-08-22T10:21:15.624Z,320
2016-08-22T10:22:15.622Z,300
2016-08-22T10:23:15.636Z,300
2016-08-22T10:24:15.636Z,305
2016-08-22T10:25:15.640Z,335
2016-08-22T10:26:15.653Z,320
2016-08-22T10:27:15.647Z,305
2016-08-22T10:28:15.662Z,295
2016-08-22T10:29:15.661Z,300
2016-08-22T10:30:15.673Z,300
2016-08-22T10:31:15.670Z,300
2016-08-22T10:32:16.369Z,295
2016-08-22T10:33:15.683Z,290
2016-08-22T10:34:15.684Z,290
2016-08-22T10:35:15.696Z,290
2016-08-22T10:36:15.692Z,290
2016-08-22T10:37:17.259Z,290
2016-08-22T10:38:16.962Z,315
2016-08-22T10:39:30.677Z,370
2016-08-22T10:40:16.007Z,390
2016-08-22T10:41:18.127Z,390
2016-08-22T10:42:18.176Z,410
2016-08-22T10:43:18.565Z,455
2016-08-22T10:44:16.331Z,445
2016-08-22T10:45:18.093Z,385
2016-08-22T10:46:17.486Z,335
2016-08-22T10:47:17.391Z,320
2016-08-22T10:48:31.342Z,310
2016-08-22T10:49:16.767Z,295
2016-08-22T10:50:18.552Z,280
2016-08-22T10:51:19.056Z,265
2016-08-22T10:52:17.975Z,255
2016-08-22T10:53:16.298Z,260
2016-08-22T10:54:18.265Z,265
2016-08-22T10:55:16.920Z,260
2016-08-22T10:56:15.778Z,255
2016-08-22T10:57:15.782Z,265
2016-08-22T10:58:15.795Z,275
2016-08-22T10:59:15.790Z,290
2016-08-22T11:00:15.995Z,285
2016-08-22T11:01:15.799Z,280
2016-08-22T11:02:15.806Z,275
2016-08-22T11:03:15.815Z,270
2016-08-22T11:04:15.807Z,285
2016-08-22T11:05:15.814Z,320
2016-08-22T11:06:15.825Z,340
2016-08-22T11:07:15.818Z,320
2016-08-22T11:08:15.817Z,290
2016-08-22T11:09:15.837Z,290
2016-08-22T11:10:15.833Z,295
2016-08-22T11:11:15.852Z,305
2016-08-22T11:12:15.838Z,330
2016-08-22T11:13:15.844Z,355
2016-08-22T11:14:15.850Z,355
2016-08-22T11:15:15.857Z,340
2016-08-22T11:16:15.856Z,330
2016-08-22T11:17:15.856Z,320
2016-08-22T11:18:15.863Z,305
2016-08-22T11:19:15.862Z,285
2016-08-22T11:20:15.870Z,275
2016-08-22T11:21:15.865Z,275
2016-08-22T11:22:15.888Z,270
2016-08-22T11:23:15.879Z,265
2016-08-22T11:24:15.882Z,255
2016-08-22T11:25:15.890Z,245
2016-08-22T11:26:15.899Z,245
2016-08-22T11:27:15.894Z,240
2016-08-22T11:28:15.892Z,240
2016-08-22T11:29:16.607Z,235
2016-08-22T11:30:15.898Z,240
2016-08-22T11:31:15.916Z,250
2016-08-22T11:32:15.920Z,245
2016-08-22T11:33:15.917Z,255
2016-08-22T11:34:15.931Z,275
2016-08-22T11:35:15.927Z,295
2016-08-22T11:36:15.924Z,295
2016-08-22T11:37:15.949Z,300
2016-08-22T11:38:15.936Z,310
2016-08-22T11:39:15.929Z,310
2016-08-22T11:40:15.952Z,330
2016-08-22T11:41:15.951Z,330
2016-08-22T11:42:15.948Z,320
2016-08-22T11:43:15.956Z,305
2016-08-22T11:44:15.954Z,285
2016-08-22T11:45:15.961Z,275
2016-08-22T11:46:15.974Z,265
2016-08-22T11:47:15.965Z,265
2016-08-22T11:48:16.663Z,270
2016-08-22T11:49:15.968Z,265
2016-08-22T11:50:15.983Z,260
2016-08-22T11:51:15.979Z,245
2016-08-22T11:52:15.985Z,250
2016-08-22T11:53:15.992Z,265
2016-08-22T11:54:16.005Z,280
2016-08-22T11:55:16.399Z,275
2016-08-22T11:56:16.605Z,280
2016-08-22T11:57:16.954Z,300
2016-08-22T11:58:16.601Z,300
2016-08-22T11:59:19.029Z,285
2016-08-22T12:01:18.813Z,275
2016-08-22T12:02:19.276Z,290
2016-08-22T12:03:16.355Z,310
2016-08-22T12:04:18.963Z,330
2016-08-22T12:05:19.270Z,340
2016-08-22T12:06:16.689Z,330
2016-08-22T12:08:17.791Z,340
2016-08-22T12:10:18.393Z,340
2016-08-22T12:11:19.168Z,330
2016-08-22T12:12:16.432Z,320
2016-08-22T12:13:16.060Z,320
2016-08-22T12:14:16.352Z,315
2016-08-22T12:15:16.278Z,315
2016-08-22T12:16:16.068Z,310
2016-08-22T12:17:16.068Z,315
2016-08-22T12:18:16.075Z,325
2016-08-22T12:19:16.081Z,330
2016-08-22T12:20:16.078Z,340
2016-08-22T12:21:16.092Z,360
2016-08-22T12:22:16.091Z,355
2016-08-22T12:23:16.095Z,335
2016-08-22T12:24:16.095Z,325
2016-08-22T12:25:16.108Z,315
2016-08-22T12:26:16.119Z,315
2016-08-22T12:27:16.123Z,340
2016-08-22T12:28:16.814Z,355
2016-08-22T12:29:16.114Z,370
2016-08-22T12:30:16.134Z,315
2016-08-22T12:31:16.130Z,345
2016-08-22T12:32:16.134Z,355
2016-08-22T12:33:16.141Z,335
2016-08-22T12:34:16.164Z,305
2016-08-22T12:35:16.152Z,300
2016-08-22T12:36:16.153Z,295
2016-08-22T12:37:16.143Z,285
2016-08-22T12:38:16.163Z,290
2016-08-22T12:39:16.169Z,305
2016-08-22T12:40:16.184Z,295
2016-08-22T12:41:16.168Z,295
2016-08-22T12:42:16.175Z,305
2016-08-22T12:43:16.178Z,300
2016-08-22T12:44:16.182Z,295
2016-08-22T12:45:16.185Z,305
2016-08-22T12:46:16.200Z,320
2016-08-22T12:47:16.195Z,320
2016-08-22T12:48:16.198Z,310
2016-08-22T12:49:16.217Z,315
2016-08-22T12:50:16.213Z,310
2016-08-22T12:51:16.228Z,255
2016-08-22T12:52:16.213Z,235
2016-08-22T12:53:16.221Z,245
2016-08-22T12:54:16.922Z,250
2016-08-22T12:55:16.236Z,235
2016-08-22T12:56:16.242Z,210
2016-08-22T12:57:16.248Z,210
2016-08-22T12:58:16.244Z,215
2016-08-22T12:59:16.252Z,230
2016-08-22T13:00:16.254Z,250
2016-08-22T13:01:16.254Z,265
2016-08-22T13:02:16.257Z,260
2016-08-22T13:03:16.965Z,245
2016-08-22T13:04:16.275Z,230
2016-08-22T13:05:16.282Z,215
2016-08-22T13:06:16.268Z,220
2016-08-22T13:07:16.302Z,240
2016-08-22T13:08:16.278Z,255
2016-08-22T13:09:16.284Z,265
2016-08-22T13:10:16.291Z,260
2016-08-22T13:11:16.991Z,250
2016-08-22T13:12:16.288Z,230
2016-08-22T13:13:16.862Z,240
2016-08-22T13:14:17.458Z,260
2016-08-22T13:15:17.258Z,285
2016-08-22T13:16:16.828Z,285
2016-08-22T13:19:20.440Z,235
2016-08-22T13:20:18.016Z,280
2016-08-22T13:21:18.605Z,305
2016-08-22T13:22:18.217Z,315
2016-08-22T13:23:31.368Z,325
2016-08-22T13:24:16.998Z,330
2016-08-22T13:25:16.959Z,335
2016-08-22T13:26:17.191Z,315
2016-08-22T13:27:20.528Z,295
2016-08-22T13:28:19.692Z,295
2016-08-22T13:29:17.702Z,300
2016-08-22T13:30:18.328Z,310
2016-08-22T13:31:17.797Z,280
2016-08-22T13:32:16.406Z,265
2016-08-22T13:33:16.908Z,280
2016-08-22T13:34:16.599Z,290
2016-08-22T13:35:16.397Z,285
2016-08-22T13:36:16.401Z,270
2016-08-22T13:37:16.402Z,255
2016-08-22T13:38:16.417Z,250
2016-08-22T13:39:16.420Z,255
2016-08-22T13:40:16.438Z,265
2016-08-22T13:41:17.126Z,275
2016-08-22T13:42:16.428Z,270
2016-08-22T13:43:16.435Z,275
2016-08-22T13:44:16.439Z,300
2016-08-22T13:45:16.437Z,305
2016-08-22T13:46:17.132Z,300
2016-08-22T13:47:16.447Z,295
2016-08-22T13:48:16.446Z,310
2016-08-22T13:49:16.458Z,325
2016-08-22T13:50:16.468Z,350
2016-08-22T13:51:16.471Z,380
2016-08-22T13:52:16.471Z,420
2016-08-22T13:53:16.468Z,455
2016-08-22T13:54:16.485Z,455
2016-08-22T13:55:16.478Z,440
2016-08-22T13:56:16.480Z,410
2016-08-22T13:57:16.485Z,395
2016-08-22T13:58:16.494Z,380
2016-08-22T13:59:16.493Z,370
2016-08-22T14:00:16.554Z,385
2016-08-22T14:01:16.524Z,400
2016-08-22T14:02:16.512Z,390
2016-08-22T14:03:16.517Z,370
2016-08-22T14:04:16.690Z,360
2016-08-22T14:05:16.520Z,340
2016-08-22T14:06:16.541Z,330
2016-08-22T14:07:16.542Z,345
2016-08-22T14:08:16.539Z,355
2016-08-22T14:09:16.547Z,375
2016-08-22T14:10:16.544Z,405
2016-08-22T14:11:16.548Z,415
2016-08-22T14:12:16.563Z,415
2016-08-22T14:13:16.560Z,420
2016-08-22T14:14:16.574Z,430
2016-08-22T14:15:16.581Z,405
2016-08-22T14:16:16.578Z,375
2016-08-22T14:17:16.583Z,375
2016-08-22T14:18:16.597Z,400
2016-08-22T14:19:16.595Z,415
2016-08-22T14:20:16.597Z,420
2016-08-22T14:21:16.818Z,405
2016-08-22T14:22:16.605Z,395
2016-08-22T14:23:16.621Z,405
2016-08-22T14:24:16.619Z,415
2016-08-22T14:25:16.618Z,425
2016-08-22T14:26:16.626Z,435
2016-08-22T14:27:16.635Z,450
2016-08-22T14:28:16.631Z,460
2016-08-22T14:29:16.640Z,460